createdAt,value
2022-11-20T00:02:08.294Z,7.56
2022-11-20T00:04:36.022Z,7.59
2022-11-20T00:07:05.117Z,7.58
2022-11-20T00:09:33.093Z,7.62
2022-11-20T00:12:00.742Z,7.62
2022-11-20T00:14:28.438Z,7.67
2022-11-20T00:16:56.039Z,7.69
2022-11-20T00:19:23.734Z,7.74
2022-11-20T00:21:52.362Z,7.71
2022-11-20T00:24:21.451Z,7.72
2022-11-20T00:26:49.170Z,7.67
2022-11-20T00:29:16.846Z,7.71
2022-11-20T00:31:44.415Z,7.68
2022-11-20T00:34:12.270Z,7.61
2022-11-20T00:36:39.883Z,7.63
2022-11-20T00:39:07.753Z,7.61
2022-11-20T00:41:36.693Z,7.68
2022-11-20T00:44:04.400Z,7.77
2022-11-20T00:46:32.284Z,7.73
2022-11-20T00:49:00.068Z,7.68
2022-11-20T00:51:28.882Z,7.74
2022-11-20T00:53:57.625Z,7.76
2022-11-20T00:56:28.411Z,7.81
2022-11-20T00:58:57.476Z,7.87
2022-11-20T01:01:26.542Z,7.92
2022-11-20T01:03:56.294Z,7.76
2022-11-20T01:06:25.679Z,7.77
2022-11-20T01:08:55.852Z,7.83
2022-11-20T01:11:25.494Z,7.67
2022-11-20T01:13:54.093Z,7.76
2022-11-20T01:16:24.844Z,7.86
2022-11-20T01:18:53.791Z,7.86
2022-11-20T01:21:23.536Z,7.92
2022-11-20T01:23:52.140Z,7.94
2022-11-20T01:26:21.603Z,7.89
2022-11-20T01:28:49.894Z,7.91
2022-11-20T01:31:19.806Z,7.86
2022-11-20T01:33:51.478Z,7.89
2022-11-20T01:36:20.524Z,7.89
2022-11-20T01:38:48.937Z,7.86
2022-11-20T01:41:37.640Z,7.86
2022-11-20T01:44:05.483Z,7.88
2022-11-20T01:46:34.113Z,7.80
2022-11-20T01:49:06.283Z,7.85
2022-11-20T01:51:41.168Z,7.87
2022-11-20T01:54:13.649Z,7.90
2022-11-20T01:56:45.284Z,7.99
2022-11-20T01:59:16.924Z,7.95
2022-11-20T02:01:44.826Z,7.96
2022-11-20T02:04:15.532Z,7.96
2022-11-20T02:06:46.502Z,7.97
2022-11-20T02:09:14.502Z,7.95
2022-11-20T02:11:42.159Z,7.95
2022-11-20T02:14:09.623Z,8.02
2022-11-20T02:16:39.765Z,8.03
2022-11-20T02:19:13.285Z,7.94
2022-11-20T02:21:48.652Z,7.92
2022-11-20T02:24:19.395Z,7.82
2022-11-20T02:26:51.793Z,7.86
2022-11-20T02:29:25.314Z,7.88
2022-11-20T02:31:55.367Z,7.80
2022-11-20T02:34:23.174Z,7.75
2022-11-20T02:36:54.130Z,7.69
2022-11-20T02:39:26.325Z,7.66
2022-11-20T02:41:55.913Z,7.59
2022-11-20T02:44:23.483Z,7.52
2022-11-20T02:46:51.063Z,7.59
2022-11-20T02:49:18.795Z,7.51
2022-11-20T02:51:46.630Z,7.60
2022-11-20T02:54:14.222Z,7.61
2022-11-20T02:56:43.440Z,7.55
2022-11-20T02:59:11.356Z,7.54
2022-11-20T03:01:39.640Z,7.52
2022-11-20T03:04:07.322Z,7.54
2022-11-20T03:06:35.436Z,7.57
2022-11-20T03:09:03.287Z,7.62
2022-11-20T03:11:31.097Z,7.55
2022-11-20T03:14:03.287Z,7.53
2022-11-20T03:16:31.548Z,7.58
2022-11-20T03:18:59.288Z,7.57
2022-11-20T03:21:26.946Z,7.60
2022-11-20T03:23:55.388Z,7.58
2022-11-20T03:26:24.903Z,7.62
2022-11-20T03:28:54.450Z,7.63
2022-11-20T03:31:25.598Z,7.63
2022-11-20T03:33:53.655Z,7.62
2022-11-20T03:36:23.709Z,7.63
2022-11-20T03:38:51.771Z,7.65
2022-11-20T03:41:20.926Z,7.60
2022-11-20T03:43:52.339Z,7.61
2022-11-20T03:46:20.092Z,7.66
2022-11-20T03:48:51.862Z,7.60
2022-11-20T03:51:21.342Z,7.56
2022-11-20T03:53:50.409Z,7.61
2022-11-20T03:56:20.046Z,7.57
2022-11-20T03:58:47.722Z,7.56
2022-11-20T04:01:17.380Z,7.57
2022-11-20T04:03:46.125Z,7.57
2022-11-20T04:06:17.922Z,7.45
2022-11-20T04:08:49.695Z,7.47
2022-11-20T04:11:22.681Z,7.52
2022-11-20T04:13:52.551Z,7.54
2022-11-20T04:16:20.215Z,7.54
2022-11-20T04:18:47.969Z,7.54
2022-11-20T04:21:16.947Z,7.47
2022-11-20T04:23:44.571Z,7.41
2022-11-20T04:26:14.124Z,7.44
2022-11-20T04:28:42.458Z,7.54
2022-11-20T04:31:12.661Z,7.56
2022-11-20T04:33:40.961Z,7.54
2022-11-20T04:36:12.492Z,7.58
2022-11-20T04:38:42.110Z,7.65
2022-11-20T04:41:14.943Z,7.66
2022-11-20T04:43:42.561Z,7.73
2022-11-20T04:46:10.198Z,7.71
2022-11-20T04:48:37.824Z,7.56
2022-11-20T04:51:05.932Z,7.65
2022-11-20T04:53:33.846Z,7.64
2022-11-20T04:56:03.997Z,7.63
2022-11-20T04:58:31.769Z,7.65
2022-11-20T05:01:04.990Z,7.68
2022-11-20T05:03:33.231Z,7.75
2022-11-20T05:06:02.427Z,7.61
2022-11-20T05:08:30.514Z,7.61
2022-11-20T05:11:03.263Z,7.64
2022-11-20T05:13:30.975Z,7.67
2022-11-20T05:16:04.176Z,7.64
2022-11-20T05:18:32.087Z,7.67
2022-11-20T05:21:00.261Z,7.71
2022-11-20T05:23:28.471Z,7.71
2022-11-20T05:25:59.381Z,7.70
2022-11-20T05:28:29.779Z,7.57
2022-11-20T05:30:57.628Z,7.57
2022-11-20T05:33:25.207Z,7.57
2022-11-20T05:35:52.803Z,7.59
2022-11-20T05:38:20.402Z,7.64
2022-11-20T05:40:47.983Z,7.68
2022-11-20T05:43:15.597Z,7.73
2022-11-20T05:45:44.814Z,7.73
2022-11-20T05:48:12.423Z,7.70
2022-11-20T05:50:40.049Z,7.72
2022-11-20T05:53:07.611Z,7.68
2022-11-20T05:55:35.277Z,7.61
2022-11-20T05:58:02.884Z,7.53
2022-11-20T06:00:30.499Z,7.53
2022-11-20T06:02:59.457Z,7.47
2022-11-20T06:05:27.159Z,7.50
2022-11-20T06:07:54.811Z,7.59
2022-11-20T06:10:22.447Z,7.58
2022-11-20T06:12:50.055Z,7.59
2022-11-20T06:15:17.614Z,7.59
2022-11-20T06:17:45.341Z,7.60
2022-11-20T06:20:15.014Z,7.64
2022-11-20T06:22:42.611Z,7.65
2022-11-20T06:25:10.409Z,7.63
2022-11-20T06:27:38.004Z,7.67
2022-11-20T06:30:06.288Z,7.61
2022-11-20T06:32:34.979Z,7.59
2022-11-20T06:35:02.689Z,7.61
2022-11-20T06:37:31.595Z,7.56
2022-11-20T06:39:59.212Z,7.53
2022-11-20T06:42:26.858Z,7.53
2022-11-20T06:44:54.455Z,7.54
2022-11-20T06:47:22.168Z,7.53
2022-11-20T06:49:49.789Z,7.57
2022-11-20T06:52:17.393Z,7.62
2022-11-20T06:54:46.403Z,7.56
2022-11-20T06:57:14.006Z,7.61
2022-11-20T06:59:41.587Z,7.56
2022-11-20T07:02:11.901Z,7.49
2022-11-20T07:04:39.961Z,7.52
2022-11-20T07:07:08.037Z,7.51
2022-11-20T07:09:35.675Z,7.50
2022-11-20T07:12:05.159Z,7.52
2022-11-20T07:14:32.715Z,7.59
2022-11-20T07:17:00.308Z,7.58
2022-11-20T07:19:27.956Z,7.53
2022-11-20T07:21:55.543Z,7.45
2022-11-20T07:24:23.141Z,7.53
2022-11-20T07:26:50.883Z,7.44
2022-11-20T07:29:20.242Z,7.57
2022-11-20T07:31:48.308Z,7.56
2022-11-20T07:34:15.927Z,7.62
2022-11-20T07:36:43.549Z,7.65
2022-11-20T07:39:11.235Z,7.58
2022-11-20T07:41:38.803Z,7.58
2022-11-20T07:44:06.846Z,7.63
2022-11-20T07:46:35.833Z,7.61
2022-11-20T07:49:03.470Z,7.56
2022-11-20T07:51:31.338Z,7.52
2022-11-20T07:53:58.958Z,7.54
2022-11-20T07:56:26.555Z,7.48
2022-11-20T07:58:54.184Z,7.51
2022-11-20T08:01:21.943Z,7.61
2022-11-20T08:03:51.022Z,7.56
2022-11-20T08:06:19.549Z,7.60
2022-11-20T08:08:47.168Z,7.65
2022-11-20T08:11:32.425Z,7.67
2022-11-20T08:14:15.413Z,7.55
2022-11-20T08:16:44.409Z,7.52
2022-11-20T08:19:14.191Z,7.55
2022-11-20T08:21:42.040Z,7.56
2022-11-20T08:24:10.408Z,7.57
2022-11-20T08:26:39.515Z,7.59
2022-11-20T08:29:07.729Z,7.57
2022-11-20T08:31:35.644Z,7.61
2022-11-20T08:34:08.725Z,7.60
2022-11-20T08:36:38.781Z,7.63
2022-11-20T08:39:06.475Z,7.62
2022-11-20T08:41:34.445Z,7.69
2022-11-20T08:44:03.939Z,7.74
2022-11-20T08:46:37.845Z,7.70
2022-11-20T08:49:10.884Z,7.60
2022-11-20T08:51:40.536Z,7.65
2022-11-20T08:54:08.963Z,7.69
2022-11-20T08:56:36.891Z,7.71
2022-11-20T09:01:52.303Z,7.81
2022-11-20T09:04:19.917Z,7.89
2022-11-20T09:06:51.828Z,7.96
2022-11-20T09:09:19.789Z,8.01
2022-11-20T09:11:47.548Z,8.04
2022-11-20T09:14:15.152Z,7.99
2022-11-20T09:16:42.815Z,8.05
2022-11-20T09:19:34.605Z,8.08
2022-11-20T09:22:01.011Z,8.18
2022-11-20T09:24:28.836Z,8.06
2022-11-20T09:26:56.464Z,8.09
2022-11-20T09:29:24.387Z,8.12
2022-11-20T09:31:52.058Z,8.20
2022-11-20T09:34:19.628Z,8.32
2022-11-20T09:36:47.280Z,8.29
2022-11-20T09:39:16.255Z,8.31
2022-11-20T09:42:06.376Z,8.29
2022-11-20T09:44:55.919Z,8.29
2022-11-20T09:47:35.009Z,8.26
2022-11-20T09:50:16.855Z,8.18
2022-11-20T09:52:59.065Z,8.22
2022-11-20T09:55:30.794Z,8.34
2022-11-20T09:58:01.327Z,8.30
2022-11-20T10:00:31.217Z,8.42
2022-11-20T10:03:06.945Z,8.41
2022-11-20T10:05:42.788Z,8.46
2022-11-20T10:08:19.099Z,8.40
2022-11-20T10:10:54.032Z,8.51
2022-11-20T10:13:42.060Z,8.66
2022-11-20T10:16:24.072Z,8.69
2022-11-20T10:19:05.703Z,8.72
2022-11-20T10:21:43.329Z,8.76
2022-11-20T10:24:36.087Z,8.84
2022-11-20T10:27:17.867Z,8.81
2022-11-20T10:29:52.444Z,8.76
2022-11-20T10:32:23.797Z,8.76
2022-11-20T10:34:56.285Z,8.76
2022-11-20T10:37:26.604Z,8.76
2022-11-20T10:40:02.766Z,8.71
2022-11-20T10:42:38.074Z,8.64
2022-11-20T10:45:18.568Z,8.57
2022-11-20T10:47:46.531Z,8.55
2022-11-20T10:50:22.490Z,8.64
2022-11-20T10:52:57.579Z,8.62
2022-11-20T10:55:32.167Z,8.61
2022-11-20T10:58:07.998Z,8.65
2022-11-20T11:00:35.786Z,8.67
2022-11-20T11:03:04.148Z,8.72
2022-11-20T11:05:41.136Z,8.74
2022-11-20T11:08:14.198Z,8.71
2022-11-20T11:10:48.148Z,8.80
2022-11-20T11:13:24.172Z,8.93
2022-11-20T11:15:52.414Z,9.01
2022-11-20T11:18:27.736Z,8.85
2022-11-20T11:20:57.138Z,8.74
2022-11-20T11:23:33.406Z,8.66
2022-11-20T11:26:02.377Z,8.71
2022-11-20T11:28:31.603Z,8.73
2022-11-20T11:30:59.646Z,8.66
2022-11-20T11:33:29.567Z,8.69
2022-11-20T11:36:00.095Z,8.65
2022-11-20T11:38:33.408Z,8.64
2022-11-20T11:41:01.242Z,8.62
2022-11-20T11:43:51.978Z,8.56
2022-11-20T11:46:38.591Z,8.54
2022-11-20T11:49:18.785Z,8.56
2022-11-20T11:52:02.222Z,8.50
2022-11-20T11:54:36.224Z,8.45
2022-11-20T11:57:12.407Z,8.50
2022-11-20T11:59:53.891Z,8.56
2022-11-20T12:02:33.286Z,8.61
2022-11-20T12:05:06.444Z,8.71
2022-11-20T12:07:47.704Z,8.71
2022-11-20T12:10:22.999Z,8.55
2022-11-20T12:12:56.758Z,8.48
2022-11-20T12:15:35.386Z,8.06
2022-11-20T12:18:03.371Z,7.99
2022-11-20T12:20:37.311Z,8.03
2022-11-20T12:23:16.919Z,8.03
2022-11-20T12:25:48.528Z,7.99
2022-11-20T12:28:37.471Z,8.00
2022-11-20T12:31:28.734Z,7.98
2022-11-20T12:34:15.993Z,8.00
2022-11-20T12:36:53.938Z,8.00
2022-11-20T12:39:36.415Z,7.95
2022-11-20T12:42:34.214Z,7.91
2022-11-20T12:45:26.558Z,7.94
2022-11-20T12:48:16.226Z,8.05
2022-11-20T12:51:14.034Z,8.07
2022-11-20T12:53:47.986Z,8.02
2022-11-20T12:56:25.312Z,7.95
2022-11-20T12:59:06.962Z,7.94
2022-11-20T13:01:43.598Z,7.93
2022-11-20T13:04:26.951Z,7.84
2022-11-20T13:06:56.253Z,7.88
2022-11-20T13:09:25.767Z,7.95
2022-11-20T13:12:04.919Z,7.91
2022-11-20T13:14:38.474Z,7.90
2022-11-20T13:17:12.023Z,7.93
2022-11-20T13:19:41.500Z,7.86
2022-11-20T13:22:10.935Z,7.78
2022-11-20T13:24:38.565Z,7.69
2022-11-20T13:27:21.090Z,7.59
2022-11-20T13:30:02.211Z,7.60
2022-11-20T13:32:33.204Z,7.64
2022-11-20T13:35:05.081Z,7.79
2022-11-20T13:37:34.992Z,7.67
2022-11-20T13:40:24.882Z,7.67
2022-11-20T13:43:06.275Z,7.67
2022-11-20T13:45:34.993Z,7.63
2022-11-20T13:48:05.922Z,7.72
2022-11-20T13:50:55.102Z,7.86
2022-11-20T13:53:34.969Z,7.81
2022-11-20T13:56:07.263Z,7.76
2022-11-20T13:58:50.138Z,7.86
2022-11-20T14:01:22.002Z,7.92
2022-11-20T14:04:05.516Z,7.99
2022-11-20T14:06:41.300Z,7.94
2022-11-20T14:09:13.183Z,7.96
2022-11-20T14:11:48.914Z,7.87
2022-11-20T14:14:19.979Z,7.89
2022-11-20T14:16:48.243Z,8.11
2022-11-20T14:19:31.309Z,8.27
2022-11-20T14:22:21.013Z,8.33
2022-11-20T14:24:49.591Z,8.31
2022-11-20T14:27:19.803Z,8.15
2022-11-20T14:29:50.007Z,8.10
2022-11-20T14:32:19.209Z,8.20
2022-11-20T14:34:49.473Z,8.26
2022-11-20T14:37:23.580Z,8.28
2022-11-20T14:39:53.866Z,8.20
2022-11-20T14:42:23.955Z,8.16
2022-11-20T14:44:53.133Z,8.16
2022-11-20T14:47:23.900Z,8.19
2022-11-20T14:49:53.575Z,8.07
2022-11-20T14:52:24.485Z,7.96
2022-11-20T14:54:53.526Z,7.94
2022-11-20T14:57:27.458Z,7.89
2022-11-20T15:00:07.777Z,7.90
2022-11-20T15:02:35.487Z,7.80
2022-11-20T15:05:04.258Z,7.79
2022-11-20T15:07:36.162Z,7.93
2022-11-20T15:10:07.207Z,7.89
2022-11-20T15:12:36.954Z,7.89
2022-11-20T15:15:06.551Z,7.86
2022-11-20T15:17:37.551Z,7.77
2022-11-20T15:20:11.922Z,7.72
2022-11-20T15:22:40.909Z,7.79
2022-11-20T15:25:14.686Z,7.84
2022-11-20T15:27:42.720Z,7.87
2022-11-20T15:30:16.345Z,7.90
2022-11-20T15:32:44.069Z,7.90
2022-11-20T15:35:12.278Z,7.82
2022-11-20T15:37:42.364Z,7.75
2022-11-20T15:40:10.853Z,7.75
2022-11-20T15:42:38.435Z,7.75
2022-11-20T15:45:06.869Z,7.78
2022-11-20T15:47:37.192Z,7.76
2022-11-20T15:50:05.322Z,7.78
2022-11-20T15:52:41.521Z,7.80
2022-11-20T15:55:12.306Z,7.81
2022-11-20T15:57:39.919Z,7.84
2022-11-20T16:00:09.174Z,7.77
2022-11-20T16:02:36.785Z,7.80
2022-11-20T16:05:04.548Z,7.80
2022-11-20T16:07:32.172Z,7.88
2022-11-20T16:09:59.878Z,7.75
2022-11-20T16:12:46.170Z,7.77
2022-11-20T16:15:31.570Z,7.82
2022-11-20T16:17:59.203Z,7.80
2022-11-20T16:20:26.802Z,7.80
2022-11-20T16:22:54.447Z,7.82
2022-11-20T16:25:22.058Z,7.78
2022-11-20T16:27:50.975Z,7.67
2022-11-20T16:30:18.578Z,7.73
2022-11-20T16:32:46.152Z,7.71
2022-11-20T16:35:13.797Z,7.76
2022-11-20T16:37:42.884Z,7.80
2022-11-20T16:40:11.925Z,7.90
2022-11-20T16:42:39.706Z,7.95
2022-11-20T16:45:09.886Z,8.02
2022-11-20T16:47:37.559Z,7.99
2022-11-20T16:50:06.626Z,8.03
2022-11-20T16:52:34.781Z,8.09
2022-11-20T16:55:02.510Z,8.06
2022-11-20T16:57:30.429Z,8.03
2022-11-20T17:00:02.091Z,8.10
2022-11-20T17:02:31.581Z,8.14
2022-11-20T17:04:59.223Z,8.13
2022-11-20T17:07:26.938Z,8.06
2022-11-20T17:09:54.613Z,8.08
2022-11-20T17:12:22.272Z,8.13
2022-11-20T17:14:49.888Z,8.11
2022-11-20T17:17:17.502Z,7.95
2022-11-20T17:19:46.445Z,7.86
2022-11-20T17:22:14.055Z,7.80
2022-11-20T17:24:41.686Z,7.90
2022-11-20T17:27:09.270Z,7.94
2022-11-20T17:29:41.898Z,7.83
2022-11-20T17:32:09.875Z,7.90
2022-11-20T17:34:37.426Z,7.94
2022-11-20T17:37:06.784Z,7.92
2022-11-20T17:39:34.357Z,7.93
2022-11-20T17:42:19.652Z,7.91
2022-11-20T17:44:47.548Z,7.88
2022-11-20T17:47:16.208Z,7.83
2022-11-20T17:49:43.824Z,7.77
2022-11-20T17:52:12.750Z,7.64
2022-11-20T17:54:40.350Z,7.64
2022-11-20T17:57:25.446Z,7.63
2022-11-20T17:59:53.106Z,7.69
2022-11-20T18:02:20.766Z,7.72
2022-11-20T18:04:48.407Z,7.69
2022-11-20T18:07:17.379Z,7.65
2022-11-20T18:09:45.020Z,7.64
2022-11-20T18:12:13.005Z,7.65
2022-11-20T18:14:41.401Z,7.61
2022-11-20T18:17:10.813Z,7.62
2022-11-20T18:19:51.338Z,7.60
2022-11-20T18:22:29.811Z,7.61
2022-11-20T18:24:57.488Z,7.74
2022-11-20T18:27:25.085Z,7.76
2022-11-20T18:29:52.918Z,7.77
2022-11-20T18:32:38.618Z,7.82
2022-11-20T18:35:12.940Z,7.75
2022-11-20T18:37:48.896Z,7.78
2022-11-20T18:40:19.052Z,7.83
2022-11-20T18:43:08.947Z,7.82
2022-11-20T18:45:58.588Z,7.86
2022-11-20T18:48:27.297Z,7.80
2022-11-20T18:50:56.432Z,7.89
2022-11-20T18:53:45.858Z,7.89
2022-11-20T18:56:20.434Z,7.87
2022-11-20T18:58:48.128Z,7.86
2022-11-20T19:01:15.817Z,7.82
2022-11-20T19:03:43.945Z,7.83
2022-11-20T19:06:13.819Z,7.77
2022-11-20T19:08:42.734Z,7.67
2022-11-20T19:11:12.101Z,7.77
2022-11-20T19:13:40.572Z,7.83
2022-11-20T19:16:10.456Z,7.92
2022-11-20T19:18:38.079Z,7.82
2022-11-20T19:21:08.589Z,7.77
2022-11-20T19:23:36.251Z,7.87
2022-11-20T19:26:07.890Z,7.87
2022-11-20T19:28:56.940Z,7.78
2022-11-20T19:31:31.177Z,7.78
2022-11-20T19:34:07.927Z,7.83
2022-11-20T19:36:44.328Z,7.83
2022-11-20T19:39:13.207Z,7.81
2022-11-20T19:41:42.512Z,7.90
2022-11-20T19:44:12.375Z,7.81
2022-11-20T19:46:40.623Z,7.82
2022-11-20T19:49:10.334Z,7.90
2022-11-20T19:51:39.445Z,7.85
2022-11-20T19:54:07.803Z,7.72
2022-11-20T19:56:35.573Z,7.60
2022-11-20T19:59:04.519Z,7.56
2022-11-20T20:01:32.963Z,7.57
2022-11-20T20:04:03.479Z,7.52
2022-11-20T20:06:32.131Z,7.47
2022-11-20T20:09:01.405Z,7.46
2022-11-20T20:11:31.300Z,7.35
2022-11-20T20:14:01.211Z,7.36
2022-11-20T20:16:30.171Z,7.29
2022-11-20T20:18:58.572Z,7.31
2022-11-20T20:21:26.456Z,7.32
2022-11-20T20:23:55.369Z,7.43
2022-11-20T20:26:23.748Z,7.37
2022-11-20T20:28:51.692Z,7.44
2022-11-20T20:31:21.735Z,7.47
2022-11-20T20:33:50.681Z,7.56
2022-11-20T20:36:20.339Z,7.55
2022-11-20T20:38:48.680Z,7.45
2022-11-20T20:41:20.411Z,7.60
2022-11-20T20:44:05.754Z,7.63
2022-11-20T20:46:33.592Z,7.66
2022-11-20T20:49:02.754Z,7.66
2022-11-20T20:51:30.427Z,7.77
2022-11-20T20:53:58.128Z,7.69
2022-11-20T20:56:25.961Z,7.73
2022-11-20T20:58:53.609Z,7.75
2022-11-20T21:01:22.722Z,7.66
2022-11-20T21:03:50.453Z,7.61
2022-11-20T21:06:19.379Z,7.52
2022-11-20T21:08:47.240Z,7.45
2022-11-20T21:11:16.818Z,7.51
2022-11-20T21:13:46.328Z,7.55
2022-11-20T21:16:15.805Z,7.57
2022-11-20T21:18:43.447Z,7.59
2022-11-20T21:21:31.854Z,7.67
2022-11-20T21:24:00.913Z,7.62
2022-11-20T21:26:28.551Z,7.53
2022-11-20T21:28:57.946Z,7.51
2022-11-20T21:31:27.052Z,7.47
2022-11-20T21:33:56.082Z,7.45
2022-11-20T21:36:25.413Z,7.37
2022-11-20T21:38:53.996Z,7.40
2022-11-20T21:41:23.913Z,7.31
2022-11-20T21:44:23.691Z,7.22
2022-11-20T21:46:41.133Z,7.16
2022-11-20T21:49:09.332Z,7.12
2022-11-20T21:51:37.030Z,7.17
2022-11-20T21:54:04.887Z,7.17
2022-11-20T21:56:33.950Z,7.12
2022-11-20T21:59:01.531Z,7.07
2022-11-20T22:01:31.386Z,6.88
2022-11-20T22:04:00.351Z,6.79
2022-11-20T22:06:32.511Z,6.74
2022-11-20T22:09:00.303Z,6.58
2022-11-20T22:11:28.108Z,6.61
2022-11-20T22:14:11.018Z,6.65
2022-11-20T22:16:38.857Z,6.77
2022-11-20T22:19:07.543Z,6.79
2022-11-20T22:21:35.891Z,6.93
2022-11-20T22:24:03.692Z,6.83
2022-11-20T22:26:39.666Z,6.85
2022-11-20T22:29:13.492Z,6.92
2022-11-20T22:31:41.086Z,6.92
2022-11-20T22:34:12.113Z,6.86
2022-11-20T22:36:40.600Z,6.62
2022-11-20T22:39:08.801Z,6.65
2022-11-20T22:41:36.426Z,6.60
2022-11-20T22:44:06.386Z,6.59
2022-11-20T22:46:36.832Z,6.55
2022-11-20T22:49:06.372Z,6.48
2022-11-20T22:51:35.440Z,6.39
2022-11-20T22:54:04.074Z,6.21
2022-11-20T22:56:32.946Z,6.11
2022-11-20T22:59:03.795Z,6.14
2022-11-20T23:01:33.273Z,6.06
2022-11-20T23:04:04.096Z,5.99
2022-11-20T23:06:34.337Z,5.96
2022-11-20T23:09:02.868Z,5.94
2022-11-20T23:11:32.128Z,5.97
2022-11-20T23:14:01.900Z,5.97
2022-11-20T23:16:31.665Z,6.05
2022-11-20T23:19:00.703Z,6.03
2022-11-20T23:21:31.550Z,5.97
2022-11-20T23:24:03.027Z,5.94
2022-11-20T23:26:33.238Z,5.94
2022-11-20T23:29:01.976Z,5.82
2022-11-20T23:31:31.959Z,5.87
2022-11-20T23:34:00.259Z,5.81
2022-11-20T23:36:29.319Z,5.70
2022-11-20T23:38:57.101Z,5.81
2022-11-20T23:41:25.082Z,5.78
2022-11-20T23:43:53.617Z,5.86
2022-11-20T23:46:21.964Z,5.94
2022-11-20T23:48:50.039Z,5.85
2022-11-20T23:51:18.009Z,5.80
2022-11-20T23:53:47.241Z,5.84
2022-11-20T23:56:16.352Z,5.74
2022-11-20T23:58:44.199Z,5.82
